sensor_id;sensor_type;location;lat;lon;timestamp;temperature;humidity
35409;DHT22;34503;45.296;9.514;2022-08-02T00:00:09;28.40;68.80
35409;DHT22;34503;45.296;9.514;2022-08-02T00:00:28;28.40;68.80
35409;DHT22;34503;45.296;9.514;2022-08-02T00:00:43;28.40;68.90
35409;DHT22;34503;45.296;9.514;2022-08-02T00:00:57;28.40;68.90
35409;DHT22;34503;45.296;9.514;2022-08-02T00:01:12;28.40;68.80
35409;DHT22;34503;45.296;9.514;2022-08-02T00:01:27;28.40;68.80
35409;DHT22;34503;45.296;9.514;2022-08-02T00:01:42;28.30;68.70
35409;DHT22;34503;45.296;9.514;2022-08-02T00:01:58;28.30;68.70
35409;DHT22;34503;45.296;9.514;2022-08-02T00:02:12;28.40;68.80
35409;DHT22;34503;45.296;9.514;2022-08-02T00:02:27;28.40;68.80
35409;DHT22;34503;45.296;9.514;2022-08-02T00:02:43;28.40;68.60
35409;DHT22;34503;45.296;9.514;2022-08-02T00:03:16;28.30;68.50
35409;DHT22;34503;45.296;9.514;2022-08-02T00:03:31;28.30;68.30
35409;DHT22;34503;45.296;9.514;2022-08-02T00:03:46;28.30;68.40
35409;DHT22;34503;45.296;9.514;2022-08-02T00:04:01;28.40;68.60
35409;DHT22;34503;45.296;9.514;2022-08-02T00:04:16;28.30;68.90
35409;DHT22;34503;45.296;9.514;2022-08-02T00:04:31;28.30;68.70
35409;DHT22;34503;45.296;9.514;2022-08-02T00:04:46;28.30;68.60
35409;DHT22;34503;45.296;9.514;2022-08-02T00:05:00;28.30;68.60
35409;DHT22;34503;45.296;9.514;2022-08-02T00:05:15;28.30;68.50
35409;DHT22;34503;45.296;9.514;2022-08-02T00:05:30;28.40;68.50
35409;DHT22;34503;45.296;9.514;2022-08-02T00:05:45;28.30;68.10
35409;DHT22;34503;45.296;9.514;2022-08-02T00:06:00;28.30;68.10
35409;DHT22;34503;45.296;9.514;2022-08-02T00:06:15;28.30;68.30
35409;DHT22;34503;45.296;9.514;2022-08-02T00:06:30;28.30;68.20
35409;DHT22;34503;45.296;9.514;2022-08-02T00:06:45;28.30;68.20
35409;DHT22;34503;45.296;9.514;2022-08-02T00:07:00;28.30;68.40
35409;DHT22;34503;45.296;9.514;2022-08-02T00:07:15;28.30;68.20
35409;DHT22;34503;45.296;9.514;2022-08-02T00:07:30;28.30;68.10
35409;DHT22;34503;45.296;9.514;2022-08-02T00:07:45;28.30;68.10
35409;DHT22;34503;45.296;9.514;2022-08-02T00:08:00;28.30;68.10
35409;DHT22;34503;45.296;9.514;2022-08-02T00:08:15;28.30;68.10
35409;DHT22;34503;45.296;9.514;2022-08-02T00:08:30;28.30;68.10
35409;DHT22;34503;45.296;9.514;2022-08-02T00:08:46;28.30;68.20
35409;DHT22;34503;45.296;9.514;2022-08-02T00:09:01;28.30;68.20
35409;DHT22;34503;45.296;9.514;2022-08-02T00:09:17;28.30;68.10
35409;DHT22;34503;45.296;9.514;2022-08-02T00:09:32;28.30;68.20
35409;DHT22;34503;45.296;9.514;2022-08-02T00:09:47;28.30;68.20
35409;DHT22;34503;45.296;9.514;2022-08-02T00:10:03;28.30;68.10
35409;DHT22;34503;45.296;9.514;2022-08-02T00:10:20;28.30;68.00
35409;DHT22;34503;45.296;9.514;2022-08-02T00:10:35;28.30;68.10
35409;DHT22;34503;45.296;9.514;2022-08-02T00:10:49;28.30;68.10
35409;DHT22;34503;45.296;9.514;2022-08-02T00:11:04;28.30;68.00
35409;DHT22;34503;45.296;9.514;2022-08-02T00:11:19;28.30;68.00
35409;DHT22;34503;45.296;9.514;2022-08-02T00:11:34;28.30;68.10
35409;DHT22;34503;45.296;9.514;2022-08-02T00:11:49;28.30;68.10
35409;DHT22;34503;45.296;9.514;2022-08-02T00:12:04;28.30;68.00
35409;DHT22;34503;45.296;9.514;2022-08-02T00:12:19;28.20;68.20
35409;DHT22;34503;45.296;9.514;2022-08-02T00:12:34;28.30;68.00
35409;DHT22;34503;45.296;9.514;2022-08-02T00:12:49;28.30;68.10
35409;DHT22;34503;45.296;9.514;2022-08-02T00:13:04;28.30;68.20
35409;DHT22;34503;45.296;9.514;2022-08-02T00:13:19;28.30;68.20
35409;DHT22;34503;45.296;9.514;2022-08-02T00:13:34;28.30;68.10
35409;DHT22;34503;45.296;9.514;2022-08-02T00:13:48;28.30;68.10
35409;DHT22;34503;45.296;9.514;2022-08-02T00:14:03;28.20;68.00
35409;DHT22;34503;45.296;9.514;2022-08-02T00:14:18;28.30;68.20
35409;DHT22;34503;45.296;9.514;2022-08-02T00:14:34;28.30;68.20
35409;DHT22;34503;45.296;9.514;2022-08-02T00:14:50;28.20;68.10
35409;DHT22;34503;45.296;9.514;2022-08-02T00:15:06;28.20;68.10
35409;DHT22;34503;45.296;9.514;2022-08-02T00:15:24;28.20;68.20
35409;DHT22;34503;45.296;9.514;2022-08-02T00:15:39;28.20;68.30
35409;DHT22;34503;45.296;9.514;2022-08-02T00:15:54;28.30;68.40
35409;DHT22;34503;45.296;9.514;2022-08-02T00:16:09;28.30;68.30
35409;DHT22;34503;45.296;9.514;2022-08-02T00:16:24;28.30;68.30
35409;DHT22;34503;45.296;9.514;2022-08-02T00:16:39;28.20;68.10
35409;DHT22;34503;45.296;9.514;2022-08-02T00:16:54;28.20;68.30
35409;DHT22;34503;45.296;9.514;2022-08-02T00:17:09;28.20;68.30
35409;DHT22;34503;45.296;9.514;2022-08-02T00:17:24;28.30;68.50
35409;DHT22;34503;45.296;9.514;2022-08-02T00:17:39;28.30;68.20
35409;DHT22;34503;45.296;9.514;2022-08-02T00:17:54;28.30;68.00
35409;DHT22;34503;45.296;9.514;2022-08-02T00:18:09;28.20;67.90
35409;DHT22;34503;45.296;9.514;2022-08-02T00:18:23;28.30;68.00
35409;DHT22;34503;45.296;9.514;2022-08-02T00:18:38;28.30;67.90
35409;DHT22;34503;45.296;9.514;2022-08-02T00:18:53;28.20;67.90
35409;DHT22;34503;45.296;9.514;2022-08-02T00:19:08;28.30;68.30
35409;DHT22;34503;45.296;9.514;2022-08-02T00:19:23;28.30;68.30
35409;DHT22;34503;45.296;9.514;2022-08-02T00:19:38;28.30;68.40
35409;DHT22;34503;45.296;9.514;2022-08-02T00:19:53;28.20;68.30
35409;DHT22;34503;45.296;9.514;2022-08-02T00:20:08;28.30;68.30
35409;DHT22;34503;45.296;9.514;2022-08-02T00:20:23;28.20;68.10
35409;DHT22;34503;45.296;9.514;2022-08-02T00:20:38;28.30;68.10
35409;DHT22;34503;45.296;9.514;2022-08-02T00:20:53;28.20;67.90
35409;DHT22;34503;45.296;9.514;2022-08-02T00:21:08;28.30;67.80
35409;DHT22;34503;45.296;9.514;2022-08-02T00:21:23;28.30;67.80
35409;DHT22;34503;45.296;9.514;2022-08-02T00:21:37;28.30;68.00
35409;DHT22;34503;45.296;9.514;2022-08-02T00:21:52;28.30;67.80
35409;DHT22;34503;45.296;9.514;2022-08-02T00:22:07;28.30;67.70
35409;DHT22;34503;45.296;9.514;2022-08-02T00:22:22;28.20;67.50
35409;DHT22;34503;45.296;9.514;2022-08-02T00:22:37;28.30;67.50
35409;DHT22;34503;45.296;9.514;2022-08-02T00:22:52;28.20;67.60
35409;DHT22;34503;45.296;9.514;2022-08-02T00:23:07;28.30;67.50
35409;DHT22;34503;45.296;9.514;2022-08-02T00:23:22;28.30;67.40
35409;DHT22;34503;45.296;9.514;2022-08-02T00:23:36;28.30;67.40
35409;DHT22;34503;45.296;9.514;2022-08-02T00:23:51;28.30;67.50
35409;DHT22;34503;45.296;9.514;2022-08-02T00:24:06;28.20;67.40
35409;DHT22;34503;45.296;9.514;2022-08-02T00:24:22;28.20;67.30
35409;DHT22;34503;45.296;9.514;2022-08-02T00:24:36;28.30;67.20
35409;DHT22;34503;45.296;9.514;2022-08-02T00:24:51;28.20;67.30
35409;DHT22;34503;45.296;9.514;2022-08-02T00:25:06;28.20;67.40
